createdAt,value
2018-09-28T00:02:35.687Z,96263.4
2018-09-28T00:07:31.249Z,96265.1
2018-09-28T00:12:27.372Z,96255.1
2018-09-28T00:17:23.237Z,96241.5
2018-09-28T00:22:19.392Z,96240.5
2018-09-28T00:27:15.514Z,96235.8
2018-09-28T00:32:11.796Z,96226.1
2018-09-28T00:37:07.376Z,96217.5
2018-09-28T00:42:03.417Z,96215.1
2018-09-28T00:46:58.752Z,96333
2018-09-28T00:51:54.764Z,96327.7
2018-09-28T00:56:50.702Z,96184.4
2018-09-28T01:01:46.888Z,96180.3
2018-09-28T01:06:42.908Z,96190.7
2018-09-28T01:11:38.823Z,96182.9
2018-09-28T01:16:34.916Z,96175.2
2018-09-28T01:21:31.136Z,96168.3
2018-09-28T01:26:27.298Z,96185.8
2018-09-28T01:31:23.613Z,96182
2018-09-28T01:36:19.727Z,96186.2
2018-09-28T01:41:15.658Z,96182
2018-09-28T01:46:11.561Z,96167.1
2018-09-28T01:51:07.329Z,96173.3
2018-09-28T01:56:03.265Z,96165.1
2018-09-28T02:00:59.297Z,96281.7
2018-09-28T02:05:55.277Z,96158
2018-09-28T02:10:51.541Z,96152.5
2018-09-28T02:15:47.462Z,96296.3
2018-09-28T02:20:43.385Z,96167.5
2018-09-28T02:25:39.426Z,96168.8
2018-09-28T02:30:35.525Z,96282.4
2018-09-28T02:35:31.666Z,96159.1
2018-09-28T02:40:27.684Z,96159.6
2018-09-28T02:45:23.631Z,96153.6
2018-09-28T02:50:19.483Z,96140.4
2018-09-28T02:55:15.479Z,96148.7
2018-09-28T03:00:11.809Z,96203.7
2018-09-28T03:05:07.462Z,96153.3
2018-09-28T03:10:03.740Z,96151.1
2018-09-28T03:14:59.336Z,96146.2
2018-09-28T03:19:55.091Z,96145.5
2018-09-28T03:24:51.033Z,96148
2018-09-28T03:29:47.128Z,96139.1
2018-09-28T03:34:43.089Z,96145.5
2018-09-28T03:39:39.117Z,96146.7
2018-09-28T03:44:34.717Z,96138.7
2018-09-28T03:49:30.719Z,96138.1
2018-09-28T03:54:26.551Z,96123.7
2018-09-28T03:59:22.677Z,96241.4
2018-09-28T04:04:18.888Z,96028.7
2018-09-28T04:09:14.867Z,96108.3
2018-09-28T04:14:10.575Z,96375.7
2018-09-28T04:19:06.235Z,96092.9
2018-09-28T04:24:01.857Z,96178.8
2018-09-28T04:28:57.836Z,96213.6
2018-09-28T04:33:53.665Z,96208.5
2018-09-28T04:38:49.612Z,96090.3
2018-09-28T04:43:45.767Z,96076
2018-09-28T04:48:41.662Z,96071.5
2018-09-28T04:53:38.014Z,96074.8
2018-09-28T04:58:34.006Z,96063.6
2018-09-28T05:03:29.833Z,96076.6
2018-09-28T05:08:25.896Z,96070.8
2018-09-28T05:13:21.868Z,96078.6
2018-09-28T05:18:17.335Z,96195.5
2018-09-28T05:23:13.505Z,96067
2018-09-28T05:28:09.282Z,96065.8
2018-09-28T05:33:05.166Z,96080.6
2018-09-28T05:38:00.898Z,96081.2
2018-09-28T05:42:56.856Z,96067.3
2018-09-28T05:47:52.748Z,96075.8
2018-09-28T05:52:48.692Z,96080.5
2018-09-28T05:57:45.045Z,96074
2018-09-28T06:02:40.916Z,96071.4
2018-09-28T06:07:36.863Z,96069.8
2018-09-28T06:12:32.803Z,96204.1
2018-09-28T06:17:28.758Z,96108.2
2018-09-28T06:22:24.567Z,96194.5
2018-09-28T06:27:20.560Z,96058.8
2018-09-28T06:32:16.552Z,96182.1
2018-09-28T06:37:12.588Z,96052.3
2018-09-28T06:42:08.744Z,96052.6
2018-09-28T06:47:04.775Z,96038.8
2018-09-28T06:52:00.863Z,96037.7
2018-09-28T06:56:57.024Z,96034.2
2018-09-28T07:01:52.856Z,96021.7
2018-09-28T07:06:48.959Z,96041.9
2018-09-28T07:11:44.492Z,96024.9
2018-09-28T07:16:40.999Z,96031.3
2018-09-28T07:21:37.099Z,96019.7
2018-09-28T07:26:33.363Z,96150.3
2018-09-28T07:31:28.884Z,96021.8
2018-09-28T07:36:25.583Z,96014.4
2018-09-28T07:41:21.673Z,96023.8
2018-09-28T07:46:18.406Z,96016.2
2018-09-28T07:51:14.284Z,96011.8
2018-09-28T07:56:11.082Z,95991.5
2018-09-28T08:01:07.081Z,95989.6
2018-09-28T08:06:03.085Z,95993.8
2018-09-28T08:10:58.473Z,96093.6
2018-09-28T08:15:54.554Z,95978.6
2018-09-28T08:20:50.685Z,96059.4
2018-09-28T08:25:46.735Z,96089.2
2018-09-28T08:30:42.726Z,96087.6
2018-09-28T08:35:38.708Z,96081.1
2018-09-28T08:40:34.943Z,96076.7
2018-09-28T08:45:31.745Z,95941.6
2018-09-28T08:50:27.312Z,96055.6
2018-09-28T08:55:23.630Z,96049.7
2018-09-28T09:00:20.063Z,96047
2018-09-28T09:05:16.395Z,96041.9
2018-09-28T09:10:13.173Z,95911.2
2018-09-28T09:15:09.741Z,96027.6
2018-09-28T09:20:05.817Z,96014.3
2018-09-28T09:25:01.705Z,96016.1
2018-09-28T09:29:56.388Z,96011.6
2018-09-28T09:34:52.633Z,96001.4
2018-09-28T09:39:48.516Z,95994.4
2018-09-28T09:44:44.744Z,96021.2
2018-09-28T09:49:41.199Z,95929.6
2018-09-28T09:54:37.748Z,95955
2018-09-28T09:59:34.200Z,95941.9
2018-09-28T10:04:30.387Z,95937.8
2018-09-28T10:09:26.627Z,95799.1
2018-09-28T10:14:23.420Z,95904.6
2018-09-28T10:19:19.693Z,95902.5
2018-09-28T10:24:16.307Z,95939.6
2018-09-28T10:29:12.714Z,95872.2
2018-09-28T10:34:09.053Z,95879.1
2018-09-28T10:39:04.797Z,95757.9
2018-09-28T10:44:00.911Z,95842.3
2018-09-28T10:48:57.137Z,95837.9
2018-09-28T10:53:53.894Z,95938.6
2018-09-28T10:58:50.163Z,95684.7
2018-09-28T11:03:46.492Z,95861.7
2018-09-28T11:08:42.606Z,95788
2018-09-28T11:13:38.400Z,95824
2018-09-28T11:18:34.677Z,95825.8
2018-09-28T11:23:31.195Z,95864.1
2018-09-28T11:28:26.577Z,95665
2018-09-28T11:33:22.949Z,95651
2018-09-28T11:38:19.316Z,95651
2018-09-28T11:43:16.156Z,95746.3
2018-09-28T11:48:11.929Z,95630.3
2018-09-28T11:53:08.564Z,95619.9
2018-09-28T11:58:04.731Z,95713.4
2018-09-28T12:03:01.247Z,95599.2
2018-09-28T12:07:57.541Z,95601
2018-09-28T12:12:53.769Z,95593.4
2018-09-28T12:17:50.093Z,95593.8
2018-09-28T12:22:46.115Z,95575.1
2018-09-28T12:27:42.525Z,95564.8
2018-09-28T12:32:38.628Z,95578.5
2018-09-28T12:37:34.715Z,95567
2018-09-28T12:42:30.603Z,95564.9
2018-09-28T12:47:26.615Z,95549.6
2018-09-28T12:52:22.774Z,95545.3
2018-09-28T12:57:18.991Z,95548
2018-09-28T13:02:15.976Z,95544.3
2018-09-28T13:07:12.608Z,95643.9
2018-09-28T13:12:08.087Z,95524.5
2018-09-28T13:17:04.071Z,95518.4
2018-09-28T13:22:00.062Z,95513.9
2018-09-28T13:26:55.961Z,94475.3
2018-09-28T13:31:52.268Z,95612.3
2018-09-28T13:36:48.168Z,95504.5
2018-09-28T13:41:44.072Z,95614
2018-09-28T13:46:40.317Z,95598.3
2018-09-28T13:51:37.295Z,95596.3
2018-09-28T13:56:33.381Z,95493.4
2018-09-28T14:01:30.154Z,95584.8
2018-09-28T14:06:26.182Z,95416.8
2018-09-28T14:11:22.469Z,95467.8
2018-09-28T14:16:18.104Z,95428.5
2018-09-28T14:21:13.838Z,95565.5
2018-09-28T14:26:10.102Z,95569.1
2018-09-28T14:31:06.147Z,95459.7
2018-09-28T14:36:02.231Z,95462
2018-09-28T14:40:58.881Z,95453.3
2018-09-28T14:45:54.847Z,95555.1
2018-09-28T14:50:51.407Z,95450.2
2018-09-28T14:55:47.770Z,95452.5
2018-09-28T15:00:44.607Z,95459.8
2018-09-28T15:05:40.542Z,95450.6
2018-09-28T15:10:36.345Z,95440.5
2018-09-28T15:15:32.278Z,95548.9
2018-09-28T15:20:27.792Z,95550.5
2018-09-28T15:25:24.102Z,95439.4
2018-09-28T15:30:20.488Z,95538.4
2018-09-28T15:35:13.305Z,95425.8
2018-09-28T15:40:09.377Z,95428.7
2018-09-28T15:45:04.833Z,95420.8
2018-09-28T15:50:00.932Z,95530.7
2018-09-28T15:54:56.927Z,95635
2018-09-28T15:59:53.666Z,95644
2018-09-28T16:04:49.673Z,95533.9
2018-09-28T16:09:45.603Z,95424.3
2018-09-28T16:14:41.606Z,95648.5
2018-09-28T16:19:37.777Z,95535.3
2018-09-28T16:24:35.028Z,95534.2
2018-09-28T16:29:30.768Z,95418.3
2018-09-28T16:34:30.733Z,95526.1
2018-09-28T16:39:29.420Z,95525.9
2018-09-28T16:44:24.452Z,95525.4
2018-09-28T16:49:24.580Z,95518.9
2018-09-28T16:54:23.140Z,95520.3
2018-09-28T16:59:21.787Z,95522
2018-09-28T17:04:20.304Z,95514.3
2018-09-28T17:09:16.957Z,95519.1
2018-09-28T17:14:12.033Z,95421.5
2018-09-28T17:19:08.467Z,95533
2018-09-28T17:24:04.016Z,95530.7
2018-09-28T17:29:00.208Z,95526.4
2018-09-28T17:33:56.333Z,95525.5
2018-09-28T17:38:52.026Z,95532.1
2018-09-28T17:43:48.177Z,95526
2018-09-28T17:48:44.696Z,95539.2
2018-09-28T17:53:40.545Z,95547.1
2018-09-28T17:58:36.944Z,95538.6
2018-09-28T18:03:32.940Z,95542.8
2018-09-28T18:08:28.598Z,95551.9
2018-09-28T18:13:24.691Z,95515.1
2018-09-28T18:18:21.227Z,95440.4
2018-09-28T18:23:17.891Z,95549
2018-09-28T18:28:16.493Z,95552.8
2018-09-28T18:33:11.732Z,95552.2
2018-09-28T18:38:10.834Z,95559.2
2018-09-28T18:43:09.572Z,95559.2
2018-09-28T18:48:05.992Z,95562.1
2018-09-28T18:53:01.542Z,95450.3
2018-09-28T18:57:58.307Z,95561.9
2018-09-28T19:02:54.784Z,95560.9
2018-09-28T19:07:51.648Z,95566.7
2018-09-28T19:12:48.875Z,95463.3
2018-09-28T19:17:44.797Z,95568.6
2018-09-28T19:22:40.803Z,95575.7
2018-09-28T19:27:37.139Z,95576.2
2018-09-28T19:32:32.983Z,95427.7
2018-09-28T19:37:29.040Z,95580.9
2018-09-28T19:42:25.285Z,95474.6
2018-09-28T19:47:21.214Z,95581.5
2018-09-28T19:52:17.282Z,95581.3
2018-09-28T19:57:13.776Z,95579.5
2018-09-28T20:02:10.154Z,95575.5
2018-09-28T20:07:05.592Z,95455.2
2018-09-28T20:12:01.202Z,95567.2
2018-09-28T20:16:57.452Z,95447.5
2018-09-28T20:21:53.776Z,95563.6
2018-09-28T20:26:49.804Z,95555
2018-09-28T20:31:46.049Z,95563.6
2018-09-28T20:36:41.805Z,95442.3
2018-09-28T20:41:37.615Z,95557
2018-09-28T20:46:33.850Z,95561.8
2018-09-28T20:51:30.021Z,95555.3
2018-09-28T20:56:26.417Z,95563.6
2018-09-28T21:01:22.715Z,95567.3
2018-09-28T21:06:18.741Z,95566.4
2018-09-28T21:11:14.652Z,95523.3
2018-09-28T21:16:10.816Z,95450.6
2018-09-28T21:21:07.049Z,95561
2018-09-28T21:26:03.417Z,95417.4
2018-09-28T21:30:59.306Z,95565.7
2018-09-28T21:35:55.494Z,95562.6
2018-09-28T21:40:51.563Z,95571.1
2018-09-28T21:45:47.703Z,95571.2
2018-09-28T21:50:43.745Z,95567.8
2018-09-28T21:55:40.045Z,95457.1
2018-09-28T22:00:36.116Z,95562.5
2018-09-28T22:05:32.725Z,95553.9
2018-09-28T22:10:28.552Z,95519
2018-09-28T22:15:24.690Z,95439.7
2018-09-28T22:20:21.060Z,95548.8
2018-09-28T22:25:17.421Z,95548
2018-09-28T22:30:13.750Z,95431.5
2018-09-28T22:35:09.913Z,95432.8
2018-09-28T22:40:05.829Z,95506.1
2018-09-28T22:45:01.803Z,95551.5
2018-09-28T22:49:57.884Z,95430.3
2018-09-28T22:54:54.561Z,95550
2018-09-28T22:59:50.897Z,95551.7
2018-09-28T23:04:47.136Z,95554.1
2018-09-28T23:09:42.994Z,95544.3
2018-09-28T23:14:39.306Z,95547.7
2018-09-28T23:19:35.610Z,95550
2018-09-28T23:24:32.211Z,95544.4
2018-09-28T23:29:28.188Z,95542.3
2018-09-28T23:34:24.326Z,95539.3
2018-09-28T23:39:20.560Z,95456.9
2018-09-28T23:44:16.923Z,95529.1
2018-09-28T23:49:13.209Z,95522.6
2018-09-28T23:54:09.448Z,95519.4
2018-09-28T23:59:05.679Z,95516.5
